Time;durP1;ratioP1;P1;durP2;ratioP2;P2;SDS_P1;SDS_P2;PMS_P1;PMS_P2;Temp;Humidity;BMP_temperature;BMP_pressure;BME280_temperature;BME280_humidity;BME280_pressure;Samples;Min_cycle;Max_cycle;Signal;HPM_P1;HPM_P2
2022/11/30 00:02:23;;;;;;;179.35;55.05;;;;;;;6.58;100.00;102212.84;5319102;28;20049;-80
2022/11/30 00:04:55;;;;;;;199.23;53.35;;;;;;;6.58;100.00;102215.50;5319742;28;20056;-80
2022/11/30 00:07:26;;;;;;;206.18;55.55;;;;;;;6.60;100.00;102213.63;5317147;27;20127;-80
2022/11/30 00:09:57;;;;;;;228.57;56.88;;;;;;;6.63;100.00;102224.06;5300810;28;20023;-80
2022/11/30 00:12:29;;;;;;;178.68;54.92;;;;;;;6.61;100.00;102217.16;5321859;28;20496;-80
2022/11/30 00:15:00;;;;;;;187.65;55.22;;;;;;;6.57;100.00;102204.97;5302452;28;20025;-81
2022/11/30 00:17:31;;;;;;;225.32;56.55;;;;;;;6.62;100.00;102217.03;5300643;28;22086;-80
2022/11/30 00:20:03;;;;;;;190.60;53.58;;;;;;;6.60;100.00;102216.25;5318428;28;20063;-80
2022/11/30 00:22:35;;;;;;;192.73;56.50;;;;;;;6.66;100.00;102223.03;5299600;28;20528;-80
2022/11/30 00:25:07;;;;;;;245.40;58.08;;;;;;;6.66;100.00;102225.69;5299305;28;20032;-81
2022/11/30 00:27:38;;;;;;;212.60;57.92;;;;;;;6.63;100.00;102215.25;5321271;28;20399;-80
2022/11/30 00:30:10;;;;;;;187.57;55.35;;;;;;;6.67;100.00;102216.78;5319837;28;20036;-80
2022/11/30 00:32:41;;;;;;;203.13;57.55;;;;;;;6.64;100.00;102219.59;5321356;28;20024;-80
2022/11/30 00:35:13;;;;;;;213.07;54.65;;;;;;;6.68;100.00;102221.16;5316606;28;20028;-80
2022/11/30 00:37:44;;;;;;;209.80;55.70;;;;;;;6.65;100.00;102216.03;5323317;28;20024;-80
2022/11/30 00:40:16;;;;;;;187.98;56.17;;;;;;;6.66;100.00;102219.53;5321707;28;20081;-80
2022/11/30 00:42:47;;;;;;;154.45;47.20;;;;;;;6.75;100.00;102222.53;5320967;28;20396;-81
2022/11/30 00:45:18;;;;;;;194.77;54.90;;;;;;;6.65;100.00;102218.69;5304010;28;20035;-80
2022/11/30 00:47:50;;;;;;;185.05;56.63;;;;;;;6.68;100.00;102226.47;5303512;28;20475;-80
2022/11/30 00:50:21;;;;;;;206.32;57.10;;;;;;;6.63;100.00;102223.22;5302397;28;20044;-80
2022/11/30 00:52:52;;;;;;;177.70;54.35;;;;;;;6.65;100.00;102231.94;5303557;28;20035;-80
2022/11/30 00:55:23;;;;;;;188.80;54.95;;;;;;;6.72;100.00;102235.13;5317643;28;20478;-80
2022/11/30 00:57:55;;;;;;;167.60;54.72;;;;;;;6.67;100.00;102229.22;5321529;28;20056;-80
2022/11/30 01:00:27;;;;;;;171.77;53.60;;;;;;;6.67;100.00;102230.06;5321499;28;20043;-79
2022/11/30 01:02:58;;;;;;;169.10;51.42;;;;;;;6.65;100.00;102225.78;5320482;28;20499;-79
2022/11/30 01:05:32;;;;;;;163.05;50.83;;;;;;;6.67;100.00;102226.56;5317000;28;20024;-80
2022/11/30 01:08:07;;;;;;;166.07;49.28;;;;;;;6.72;100.00;102230.66;5319133;27;20496;-79
2022/11/30 01:10:40;;;;;;;167.85;50.83;;;;;;;6.72;100.00;102235.13;5302722;28;20476;-80
2022/11/30 01:13:12;;;;;;;143.93;49.35;;;;;;;6.72;100.00;102235.97;5319831;28;20034;-79
2022/11/30 01:15:43;;;;;;;158.55;48.78;;;;;;;6.61;100.00;102228.59;5318451;28;20552;-79
2022/11/30 01:18:15;;;;;;;153.23;50.90;;;;;;;6.68;100.00;102231.78;5298333;28;20020;-80
2022/11/30 01:20:46;;;;;;;144.30;49.10;;;;;;;6.58;100.00;102219.94;5320191;28;20031;-80
2022/11/30 01:23:17;;;;;;;147.55;48.90;;;;;;;6.74;100.00;102241.19;5321705;28;20024;-80
2022/11/30 01:25:54;;;;;;;134.55;46.80;;;;;;;6.78;100.00;102238.31;5318441;28;20134;-80
2022/11/30 01:28:26;;;;;;;157.30;46.00;;;;;;;6.68;100.00;102226.47;5319271;28;20372;-80
2022/11/30 01:30:59;;;;;;;128.45;45.72;;;;;;;6.75;100.00;102235.81;5320711;27;20032;-80
2022/11/30 01:33:31;;;;;;;142.07;45.17;;;;;;;6.77;100.00;102241.88;5316862;28;20028;-80
2022/11/30 01:36:09;;;;;;;122.00;45.22;;;;;;;6.82;100.00;102247.78;5300739;28;20457;-80
2022/11/30 01:38:46;;;;;;;144.60;44.92;;;;;;;6.77;100.00;102235.72;5318425;28;20376;-80
2022/11/30 01:41:24;;;;;;;112.55;40.88;;;;;;;6.76;100.00;102228.69;5318185;28;20024;-80
2022/11/30 01:44:17;;;;;;;108.82;38.70;;;;;;;6.89;100.00;102232.41;5320313;28;20028;-80
2022/11/30 01:46:52;;;;;;;94.22;34.85;;;;;;;7.05;100.00;102237.72;5269286;28;20437;-80
2022/11/30 01:49:41;;;;;;;99.95;38.35;;;;;;;7.08;100.00;102242.84;5319421;27;24147;-80
2022/11/30 01:52:21;;;;;;;121.25;40.53;;;;;;;6.94;100.00;102227.69;5320152;28;20387;-80
2022/11/30 01:55:03;;;;;;;134.45;45.42;;;;;;;6.93;100.00;102251.66;5317407;27;20111;-80
2022/11/30 01:57:41;;;;;;;96.25;35.40;;;;;;;7.01;100.00;102249.41;5323659;28;20021;-80
2022/11/30 02:00:13;;;;;;;96.75;34.95;;;;;;;7.06;100.00;102260.63;5324350;28;20119;-80
2022/11/30 02:03:10;;;;;;;101.68;37.78;;;;;;;7.08;100.00;102264.09;5304945;28;20028;-80
2022/11/30 02:05:41;;;;;;;108.93;39.20;;;;;;;6.98;100.00;102268.19;5323227;27;20031;-80
2022/11/30 02:08:13;;;;;;;115.25;42.75;;;;;;;6.86;100.00;102267.03;5306725;28;20411;-80
2022/11/30 02:10:51;;;;;;;115.75;41.95;;;;;;;6.85;100.00;102262.66;5322002;28;20099;-80
2022/11/30 02:13:37;;;;;;;99.40;38.13;;;;;;;6.89;100.00;102260.69;5322064;28;20165;-80
2022/11/30 02:16:25;;;;;;;112.57;41.45;;;;;;;6.81;100.00;102259.31;5298285;28;20037;-80
2022/11/30 02:19:21;;;;;;;115.43;40.38;;;;;;;6.76;100.00;102255.22;5324819;28;20039;-80
2022/11/30 02:22:02;;;;;;;105.18;40.72;;;;;;;6.76;100.00;102261.38;5321875;28;20028;-80
2022/11/30 02:24:53;;;;;;;108.32;38.53;;;;;;;6.73;100.00;102261.56;5321718;28;20028;-80
2022/11/30 02:27:43;;;;;;;104.10;38.58;;;;;;;6.71;100.00;102258.09;5324075;28;20028;-80
2022/11/30 02:30:18;;;;;;;88.00;35.17;;;;;;;6.80;100.00;102259.41;5323217;28;20036;-80
2022/11/30 02:33:06;;;;;;;126.43;39.88;;;;;;;6.67;100.00;102253.91;5324252;28;20369;-80
2022/11/30 02:35:40;;;;;;;97.50;35.92;;;;;;;6.69;100.00;102252.03;5298979;28;20027;-80
2022/11/30 02:38:12;;;;;;;102.00;37.78;;;;;;;6.65;100.00;102254.94;5323876;28;20073;-80
2022/11/30 02:40:44;;;;;;;92.25;37.15;;;;;;;6.60;100.00;102256.03;5323824;28;20028;-80
2022/11/30 02:43:18;;;;;;;97.47;36.17;;;;;;;6.72;100.00;102264.28;5306887;28;20522;-80
2022/11/30 02:46:13;;;;;;;95.32;35.17;;;;;;;6.77;100.00;102262.25;5320021;28;20024;-80
2022/11/30 02:48:48;;;;;;;86.40;35.60;;;;;;;6.64;100.00;102267.34;5323614;28;20047;-80
2022/11/30 02:51:24;;;;;;;78.50;32.72;;;;;;;6.64;100.00;102248.78;5304022;28;20116;-80
2022/11/30 02:53:55;;;;;;;91.60;35.97;;;;;;;6.65;100.00;102258.44;5300165;28;20450;-80
2022/11/30 02:56:27;;;;;;;85.90;33.53;;;;;;;6.68;100.00;102268.03;5304768;28;20158;-80
2022/11/30 02:58:59;;;;;;;85.03;33.50;;;;;;;6.68;100.00;102274.22;5302278;28;20024;-80
2022/11/30 03:01:30;;;;;;;96.80;34.85;;;;;;;6.63;100.00;102268.28;5322052;28;20028;-80
2022/11/30 03:04:01;;;;;;;79.47;33.00;;;;;;;6.61;100.00;102267.53;5321934;28;20380;-80
2022/11/30 03:06:33;;;;;;;84.70;33.92;;;;;;;6.62;100.00;102267.41;5318819;27;20112;-80
2022/11/30 03:09:04;;;;;;;87.38;34.47;;;;;;;6.58;100.00;102271.19;5303726;28;20115;-81
2022/11/30 03:11:35;;;;;;;78.40;33.63;;;;;;;6.51;100.00;102269.78;5320784;28;20063;-81
2022/11/30 03:14:07;;;;;;;79.00;31.63;;;;;;;6.56;100.00;102273.06;5323367;28;20024;-81
2022/11/30 03:16:39;;;;;;;80.80;32.50;;;;;;;6.57;100.00;102272.13;5323796;27;20050;-81
2022/11/30 03:19:10;;;;;;;78.50;32.83;;;;;;;6.53;100.00;102273.22;5323710;27;20094;-81
2022/11/30 03:21:41;;;;;;;75.78;32.45;;;;;;;6.50;100.00;102270.72;5322613;27;20380;-81
2022/11/30 03:24:15;;;;;;;78.93;30.90;;;;;;;6.52;100.00;102265.34;5323376;28;20028;-81
2022/11/30 03:26:47;;;;;;;83.05;30.50;;;;;;;6.54;100.00;102271.41;5323109;28;20507;-81
2022/11/30 03:29:18;;;;;;;77.47;32.75;;;;;;;6.47;100.00;102270.91;5323597;28;20395;-81
2022/11/30 03:31:49;;;;;;;66.40;29.48;;;;;;;6.54;100.00;102274.94;5319199;28;20039;-81
2022/11/30 03:34:21;;;;;;;76.88;32.45;;;;;;;6.41;100.00;102268.56;5306444;28;20028;-81
2022/11/30 03:36:54;;;;;;;79.55;31.55;;;;;;;6.46;100.00;102281.56;5304488;28;20539;-81
2022/11/30 03:39:25;;;;;;;79.90;33.15;;;;;;;6.39;100.00;102270.44;5321550;28;20032;-81
2022/11/30 03:41:56;;;;;;;72.95;32.13;;;;;;;6.29;100.00;102270.03;5321061;28;20020;-81
2022/11/30 03:44:28;;;;;;;78.25;30.52;;;;;;;6.05;100.00;102249.19;5303669;28;20023;-81
2022/11/30 03:47:00;;;;;;;110.22;31.30;;;;;;;5.93;100.00;102255.09;5321818;28;20024;-81
2022/11/30 03:49:34;;;;;;;71.85;30.30;;;;;;;5.96;100.00;102259.38;5320732;28;20027;-81
2022/11/30 03:52:05;;;;;;;74.32;29.02;;;;;;;6.00;100.00;102275.06;5322179;28;20475;-81
2022/11/30 03:54:36;;;;;;;108.65;31.38;;;;;;;5.87;100.00;102265.97;5323452;28;20044;-81
2022/11/30 03:57:08;;;;;;;73.78;29.65;;;;;;;6.00;100.00;102279.50;5322587;28;20028;-81
2022/11/30 03:59:39;;;;;;;74.88;30.63;;;;;;;6.04;100.00;102279.25;5323569;28;20028;-81
2022/11/30 04:02:10;;;;;;;79.28;32.83;;;;;;;6.04;100.00;102271.31;5319938;28;20020;-81
2022/11/30 04:04:41;;;;;;;67.82;28.38;;;;;;;6.04;100.00;102281.91;5323309;28;20064;-81
2022/11/30 04:07:13;;;;;;;85.70;31.83;;;;;;;6.04;100.00;102271.31;5322078;27;20070;-80
2022/11/30 04:09:44;;;;;;;80.22;32.38;;;;;;;6.07;100.00;102270.31;5320028;28;20035;-80
2022/11/30 04:12:17;;;;;;;79.13;31.52;;;;;;;6.14;100.00;102277.00;5317718;28;20080;-80
2022/11/30 04:14:48;;;;;;;74.85;31.60;;;;;;;6.11;100.00;102271.00;5303737;28;20847;-80
2022/11/30 04:17:19;;;;;;;56.65;22.80;;;;;;;6.15;100.00;102276.06;5320024;28;20024;-80
2022/11/30 04:19:50;;;;;;;81.57;30.83;;;;;;;6.17;100.00;102282.16;5316465;28;20453;-80
2022/11/30 04:22:22;;;;;;;73.18;28.60;;;;;;;6.35;100.00;102280.34;5318248;28;29717;-80
2022/11/30 04:24:53;;;;;;;60.05;24.15;;;;;;;6.41;100.00;102272.06;5318808;28;20020;-80
2022/11/30 04:27:24;;;;;;;55.85;25.17;;;;;;;6.53;100.00;102275.88;5300616;28;20590;-80
2022/11/30 04:29:56;;;;;;;65.72;27.05;;;;;;;6.48;100.00;102272.59;5297744;28;20098;-80
2022/11/30 04:32:27;;;;;;;126.03;32.33;;;;;;;6.30;100.00;102282.38;5301211;28;20121;-80
2022/11/30 04:34:58;;;;;;;89.07;30.98;;;;;;;6.35;100.00;102279.50;5319446;28;20146;-80
2022/11/30 04:37:29;;;;;;;73.82;27.85;;;;;;;6.31;100.00;102278.78;5319771;28;20453;-80
2022/11/30 04:40:01;;;;;;;117.30;31.88;;;;;;;6.19;100.00;102279.44;5318456;28;20030;-80
2022/11/30 04:42:32;;;;;;;87.78;31.42;;;;;;;6.10;100.00;102269.28;5301146;28;20070;-80
2022/11/30 04:45:04;;;;;;;85.10;31.85;;;;;;;6.10;100.00;102275.47;5317671;28;20028;-80
2022/11/30 04:47:36;;;;;;;76.13;29.92;;;;;;;6.12;100.00;102273.59;5318617;28;20490;-80
2022/11/30 04:50:08;;;;;;;94.22;32.08;;;;;;;6.00;100.00;102266.25;5315110;28;20055;-80
2022/11/30 04:52:40;;;;;;;99.78;31.60;;;;;;;6.13;100.00;102290.31;5319170;28;20107;-80
2022/11/30 04:55:11;;;;;;;83.43;30.50;;;;;;;6.01;100.00;102279.44;5318536;27;20116;-80
2022/11/30 04:57:43;;;;;;;84.10;31.88;;;;;;;5.97;100.00;102269.06;5297572;28;20075;-80
2022/11/30 05:00:16;;;;;;;81.53;31.95;;;;;;;5.91;100.00;102279.91;5319835;28;20035;-80
2022/11/30 05:02:47;;;;;;;80.65;29.38;;;;;;;5.84;100.00;102285.53;5318935;28;20028;-80
2022/11/30 05:05:19;;;;;;;103.25;31.10;;;;;;;5.66;100.00;102271.44;5300199;28;20098;-80
2022/11/30 05:07:55;;;;;;;93.25;30.55;;;;;;;5.68;100.00;102284.59;5318630;27;20043;-80
2022/11/30 05:10:27;;;;;;;80.78;29.90;;;;;;;5.66;100.00;102289.97;5300062;28;20028;-80
2022/11/30 05:12:59;;;;;;;98.05;31.23;;;;;;;5.61;100.00;102278.72;5318522;28;20090;-80
2022/11/30 05:15:30;;;;;;;92.30;30.52;;;;;;;5.59;100.00;102295.59;5319021;27;20027;-80
2022/11/30 05:18:02;;;;;;;74.28;29.92;;;;;;;5.52;100.00;102288.91;5317247;27;20031;-80
2022/11/30 05:20:34;;;;;;;136.57;29.90;;;;;;;5.44;100.00;102289.28;5317070;28;20129;-80
2022/11/30 05:23:05;;;;;;;72.32;29.13;;;;;;;5.50;100.00;102291.63;5320849;27;20183;-80
2022/11/30 05:25:36;;;;;;;79.47;29.40;;;;;;;5.39;100.00;102286.00;5298178;28;20032;-80
2022/11/30 05:28:08;;;;;;;62.72;27.38;;;;;;;5.40;100.00;102291.22;5301106;28;20131;-80
2022/11/30 05:30:41;;;;;;;73.25;29.02;;;;;;;5.41;100.00;102298.22;5321829;28;20101;-80
2022/11/30 05:33:12;;;;;;;78.15;28.23;;;;;;;5.27;100.00;102288.28;5304433;28;20035;-80
2022/11/30 05:35:43;;;;;;;87.00;29.92;;;;;;;5.26;100.00;102296.31;5321745;28;20508;-80
2022/11/30 05:38:15;;;;;;;75.40;29.30;;;;;;;5.25;100.00;102297.22;5323340;28;20027;-80
2022/11/30 05:40:46;;;;;;;94.68;30.83;;;;;;;5.19;100.00;102290.44;5321497;28;20028;-80
2022/11/30 05:43:17;;;;;;;79.07;30.73;;;;;;;5.21;100.00;102298.31;5320767;28;20103;-80
2022/11/30 05:45:49;;;;;;;91.75;31.10;;;;;;;5.27;100.00;102308.59;5324416;27;20430;-79
2022/11/30 05:48:20;;;;;;;191.85;32.47;;;;;;;5.10;100.00;102301.44;5322838;27;20032;-80
2022/11/30 05:50:51;;;;;;;75.50;29.88;;;;;;;5.21;100.00;102308.91;5322472;28;20046;-80
2022/11/30 05:53:22;;;;;;;81.30;30.40;;;;;;;5.26;100.00;102320.13;5320245;27;20494;-80
2022/11/30 05:55:54;;;;;;;78.15;29.95;;;;;;;5.24;100.00;102303.44;5322395;28;20023;-80
2022/11/30 05:58:25;;;;;;;84.68;31.65;;;;;;;5.29;100.00;102319.97;5320603;27;20016;-80
2022/11/30 06:00:56;;;;;;;88.38;33.13;;;;;;;5.33;100.00;102310.09;5322030;27;20027;-80
2022/11/30 06:03:31;;;;;;;79.95;33.63;;;;;;;5.44;100.00;102327.19;5301332;28;20024;-80
2022/11/30 06:06:02;;;;;;;91.50;32.50;;;;;;;5.41;100.00;102329.97;5321343;27;20178;-80
2022/11/30 06:08:34;;;;;;;63.15;25.83;;;;;;;5.69;100.00;102331.28;5319949;27;20021;-80
2022/11/30 06:11:06;;;;;;;90.50;31.55;;;;;;;5.55;100.00;102325.81;5303256;28;20040;-80
2022/11/30 06:13:38;;;;;;;68.03;25.98;;;;;;;5.52;100.00;102324.16;5301849;28;20031;-80
2022/11/30 06:16:10;;;;;;;137.23;32.78;;;;;;;5.45;100.00;102330.69;5301884;28;20035;-80
2022/11/30 06:18:41;;;;;;;84.00;31.67;;;;;;;5.48;100.00;102335.81;5321098;28;20032;-80
2022/11/30 06:21:12;;;;;;;82.75;31.60;;;;;;;5.44;100.00;102328.97;5320166;28;20024;-80
2022/11/30 06:23:44;;;;;;;67.75;24.85;;;;;;;5.80;100.00;102322.81;5320131;28;20032;-80
2022/11/30 06:26:15;;;;;;;67.35;26.95;;;;;;;6.04;100.00;102326.09;5324203;28;20016;-80
2022/11/30 06:28:46;;;;;;;62.63;26.30;;;;;;;6.22;100.00;102327.81;5304569;28;20054;-80
2022/11/30 06:31:18;;;;;;;81.60;29.92;;;;;;;6.31;100.00;102325.63;5305853;28;20032;-80
2022/11/30 06:33:49;;;;;;;81.30;31.75;;;;;;;6.41;100.00;102334.81;5320798;27;20050;-80
2022/11/30 06:36:22;;;;;;;91.90;36.35;;;;;;;6.38;100.00;102334.97;5326967;28;20024;-80
2022/11/30 06:38:54;;;;;;;87.13;36.25;;;;;;;6.40;100.00;102333.13;5324277;27;20063;-80
2022/11/30 06:41:25;;;;;;;81.57;30.42;;;;;;;6.44;100.00;102332.03;5322727;28;20081;-80
2022/11/30 06:43:57;;;;;;;129.05;39.22;;;;;;;6.11;100.00;102335.44;5300944;28;20159;-80
2022/11/30 06:46:28;;;;;;;104.75;36.03;;;;;;;6.05;100.00;102338.41;5318346;28;20036;-81
2022/11/30 06:49:00;;;;;;;141.52;37.65;;;;;;;5.66;100.00;102297.03;5318761;28;20552;-81
2022/11/30 06:51:32;;;;;;;151.73;35.97;;;;;;;5.69;100.00;102331.28;5323240;28;20055;-80
2022/11/30 06:54:05;;;;;;;134.07;35.15;;;;;;;5.57;100.00;102330.09;5323631;28;20443;-80
2022/11/30 06:56:36;;;;;;;133.43;35.03;;;;;;;5.54;100.00;102348.78;5330835;27;20032;-80
2022/11/30 06:59:08;;;;;;;138.13;34.55;;;;;;;5.51;100.00;102346.28;5326988;28;20532;-80
2022/11/30 07:01:39;;;;;;;153.20;33.53;;;;;;;5.44;100.00;102340.41;5326702;28;20460;-81
2022/11/30 07:04:10;;;;;;;92.20;31.38;;;;;;;5.59;100.00;102352.06;5325045;28;20024;-80
2022/11/30 07:06:42;;;;;;;90.40;31.58;;;;;;;5.59;100.00;102335.31;5319723;27;20044;-80
2022/11/30 07:09:13;;;;;;;85.25;32.67;;;;;;;5.57;100.00;102340.69;5326710;28;20016;-80
2022/11/30 07:11:45;;;;;;;97.85;32.58;;;;;;;5.60;100.00;102353.78;5313810;28;20039;-80
2022/11/30 07:14:16;;;;;;;113.18;33.47;;;;;;;5.55;100.00;102358.44;5311127;27;20150;-80
2022/11/30 07:16:47;;;;;;;121.47;33.78;;;;;;;5.47;100.00;102350.00;5306234;27;20039;-80
2022/11/30 07:19:19;;;;;;;104.28;32.38;;;;;;;5.47;100.00;102355.31;5326187;28;20031;-80
2022/11/30 07:21:50;;;;;;;86.43;31.67;;;;;;;5.41;100.00;102351.13;5307240;28;20056;-80
2022/11/30 07:27:11;;;;;;;101.22;32.47;;;;;;;5.52;100.00;102370.94;5326230;28;20032;-80
2022/11/30 07:29:42;;;;;;;92.03;33.53;;;;;;;5.52;100.00;102369.16;5326991;28;20023;-80
2022/11/30 07:32:14;;;;;;;90.88;32.15;;;;;;;5.58;100.00;102374.16;5326713;28;20094;-80
2022/11/30 07:34:45;;;;;;;121.75;32.25;;;;;;;5.53;100.00;102370.03;5308645;28;20486;-81
2022/11/30 07:37:17;;;;;;;126.68;33.50;;;;;;;5.52;100.00;102384.19;5307151;28;20024;-81
2022/11/30 07:39:48;;;;;;;123.88;33.78;;;;;;;5.49;100.00;102377.25;5326058;28;20143;-81
2022/11/30 07:42:21;;;;;;;113.35;32.03;;;;;;;5.51;100.00;102383.34;5326462;28;20055;-81
2022/11/30 07:44:52;;;;;;;73.60;28.98;;;;;;;5.59;100.00;102378.53;5326455;28;20052;-80
2022/11/30 07:47:24;;;;;;;83.03;33.30;;;;;;;5.66;100.00;102390.56;5326606;28;20063;-80
2022/11/30 07:49:55;;;;;;;106.55;32.30;;;;;;;5.61;100.00;102392.56;5307811;28;20031;-80
2022/11/30 07:52:29;;;;;;;89.63;31.05;;;;;;;5.66;100.00;102394.97;5326494;27;20434;-81
2022/11/30 07:55:00;;;;;;;79.20;30.23;;;;;;;5.71;100.00;102395.63;5308251;28;20016;-80
2022/11/30 07:57:31;;;;;;;112.38;32.33;;;;;;;5.65;100.00;102390.63;5327394;28;20028;-81
2022/11/30 08:00:03;;;;;;;87.30;31.63;;;;;;;5.69;100.00;102400.97;5327194;28;20533;-81
2022/11/30 08:02:35;;;;;;;90.07;33.63;;;;;;;5.76;100.00;102401.56;5326728;28;20027;-81
2022/11/30 08:05:10;;;;;;;107.30;33.55;;;;;;;5.68;100.00;102386.03;5308307;28;20035;-81
2022/11/30 08:07:41;;;;;;;103.05;33.58;;;;;;;5.76;100.00;102400.69;5326334;27;20380;-80
2022/11/30 08:10:12;;;;;;;106.57;33.63;;;;;;;5.77;100.00;102389.19;5308012;28;20024;-81
2022/11/30 08:12:44;;;;;;;111.88;33.85;;;;;;;5.84;100.00;102407.34;5327002;28;20395;-81
2022/11/30 08:15:15;;;;;;;79.85;33.42;;;;;;;5.90;100.00;102403.53;5326564;28;20548;-81
2022/11/30 08:17:49;;;;;;;98.85;33.25;;;;;;;5.91;100.00;102407.91;5289992;28;20052;-81
2022/11/30 08:20:21;;;;;;;70.60;32.08;;;;;;;6.04;100.00;102411.69;5326445;28;20091;-80
2022/11/30 08:22:52;;;;;;;105.68;32.38;;;;;;;5.95;100.00;102400.69;5326216;28;20024;-81
2022/11/30 08:25:23;;;;;;;95.78;33.90;;;;;;;6.08;100.00;102411.56;5326004;28;20031;-81
2022/11/30 08:27:54;;;;;;;106.30;34.20;;;;;;;6.05;100.00;102413.44;5326582;28;20105;-81
2022/11/30 08:30:26;;;;;;;76.85;32.55;;;;;;;6.18;100.00;102418.97;5326054;28;20044;-80
2022/11/30 08:32:57;;;;;;;93.07;36.03;;;;;;;6.32;100.00;102425.41;5320025;28;20055;-81
2022/11/30 08:35:28;;;;;;;80.20;34.33;;;;;;;6.50;100.00;102416.50;5304941;28;20068;-81
2022/11/30 08:38:00;;;;;;;81.97;34.15;;;;;;;6.59;100.00;102436.41;5304794;28;20016;-81
2022/11/30 08:40:31;;;;;;;115.82;35.92;;;;;;;6.58;100.00;102429.41;5286457;28;20031;-81
2022/11/30 08:43:03;;;;;;;96.78;34.88;;;;;;;6.61;100.00;102424.81;5291326;28;20090;-80
2022/11/30 08:45:34;;;;;;;103.38;34.28;;;;;;;6.76;100.00;102433.75;5326174;28;20016;-80
2022/11/30 08:48:06;;;;;;;104.40;35.10;;;;;;;6.74;100.00;102425.03;5325579;28;20024;-81
2022/11/30 08:50:37;;;;;;;78.18;34.10;;;;;;;6.97;100.00;102441.53;5325211;28;20031;-81
2022/11/30 08:53:08;;;;;;;87.57;33.13;;;;;;;6.67;100.00;102433.38;5325586;28;20031;-80
2022/11/30 08:55:40;;;;;;;86.80;31.85;;;;;;;6.57;100.00;102435.63;5307088;28;20020;-81
2022/11/30 08:58:11;;;;;;;82.65;32.15;;;;;;;6.54;100.00;102434.00;5324189;28;20472;-80
2022/11/30 09:00:42;;;;;;;86.85;34.60;;;;;;;6.76;100.00;102435.56;5308296;28;20020;-80
2022/11/30 09:03:14;;;;;;;82.28;33.05;;;;;;;7.00;100.00;102428.13;5325116;27;20023;-81
2022/11/30 09:05:45;;;;;;;93.00;34.95;;;;;;;7.29;100.00;102439.88;5302690;28;20017;-80
2022/11/30 09:08:16;;;;;;;75.50;35.13;;;;;;;7.76;100.00;102438.19;5305044;28;20438;-80
2022/11/30 09:10:48;;;;;;;69.13;35.00;;;;;;;8.10;100.00;102442.47;5320402;28;20035;-81
2022/11/30 09:13:19;;;;;;;76.35;34.33;;;;;;;8.18;100.00;102446.50;5324129;28;20497;-80
2022/11/30 09:15:54;;;;;;;51.38;31.63;;;;;;;8.32;100.00;102444.75;5324080;28;20073;-80
2022/11/30 09:18:26;;;;;;;50.88;31.40;;;;;;;8.39;100.00;102442.59;5315630;28;20024;-80
2022/11/30 09:20:59;;;;;;;49.25;31.27;;;;;;;8.42;100.00;102455.75;5334915;28;20095;-81
2022/11/30 09:23:31;;;;;;;49.15;29.83;;;;;;;8.46;100.00;102451.13;5335229;27;20032;-81
2022/11/30 09:26:05;;;;;;;43.85;28.13;;;;;;;8.58;100.00;102449.56;5335571;28;20028;-81
2022/11/30 09:28:38;;;;;;;42.35;28.20;;;;;;;8.73;100.00;102455.75;5333127;28;20584;-80
2022/11/30 09:31:12;;;;;;;38.25;27.88;;;;;;;8.93;100.00;102465.22;5335530;28;20047;-80
2022/11/30 09:33:44;;;;;;;38.00;26.33;;;;;;;8.94;100.00;102461.59;5335888;28;20027;-81
2022/11/30 09:36:18;;;;;;;34.45;24.67;;;;;;;8.78;100.00;102457.19;5335367;28;20036;-80
2022/11/30 09:38:49;;;;;;;32.58;24.48;;;;;;;8.81;100.00;102457.00;5328779;28;20032;-81
2022/11/30 09:41:32;;;;;;;33.20;22.77;;;;;;;8.91;100.00;102462.66;5308432;28;20025;-80
2022/11/30 09:44:15;;;;;;;30.88;22.70;;;;;;;8.87;100.00;102461.97;5326443;28;20430;-81
2022/11/30 09:46:52;;;;;;;29.08;23.23;;;;;;;8.73;100.00;102459.28;5326389;28;20030;-81
2022/11/30 09:49:36;;;;;;;32.40;24.20;;;;;;;8.67;100.00;102452.50;5325980;28;20125;-80
2022/11/30 09:52:13;;;;;;;27.73;22.85;;;;;;;8.60;100.00;102448.50;5325307;28;20028;-81
2022/11/30 09:54:46;;;;;;;29.75;22.65;;;;;;;8.56;100.00;102456.78;5315708;28;20021;-80
2022/11/30 09:57:40;;;;;;;28.27;22.50;;;;;;;8.92;100.00;102461.69;5304903;28;20025;-81
2022/11/30 10:00:16;;;;;;;29.83;23.85;;;;;;;9.05;100.00;102462.66;5309417;28;20114;-80
2022/11/30 10:02:49;;;;;;;27.45;22.23;;;;;;;9.29;100.00;102462.09;5326131;28;20020;-81
2022/11/30 10:05:25;;;;;;;33.70;23.25;;;;;;;9.26;100.00;102459.66;5316580;28;20021;-81
2022/11/30 10:08:22;;;;;;;30.50;24.42;;;;;;;9.33;100.00;102468.13;5306091;28;20040;-80
2022/11/30 10:11:22;;;;;;;29.80;24.05;;;;;;;9.54;100.00;102453.47;5285629;28;20044;-81
2022/11/30 10:14:12;;;;;;;31.05;23.98;;;;;;;9.28;100.00;102455.94;5305312;28;20025;-81
2022/11/30 10:17:06;;;;;;;34.42;23.67;;;;;;;9.41;100.00;102433.88;5307771;28;20503;-80
2022/11/30 10:19:57;;;;;;;28.30;23.73;;;;;;;9.49;100.00;102436.91;5326706;28;20070;-81
2022/11/30 10:22:45;;;;;;;28.67;22.73;;;;;;;9.56;100.00;102456.03;5329717;28;23293;-79
2022/11/30 10:25:23;;;;;;;29.83;22.90;;;;;;;9.66;100.00;102443.84;5328369;28;27545;-80
2022/11/30 10:28:03;;;;;;;29.48;23.50;;;;;;;9.66;100.00;102443.84;5329177;28;20039;-80
2022/11/30 10:30:35;;;;;;;27.73;22.73;;;;;;;9.63;100.00;102438.72;5328445;27;20556;-80
2022/11/30 10:33:17;;;;;;;30.70;24.17;;;;;;;9.81;100.00;102439.34;5322176;27;20039;-81
2022/11/30 10:35:51;;;;;;;28.35;23.13;;;;;;;10.06;100.00;102437.75;5306696;28;20045;-81
2022/11/30 10:38:30;;;;;;;28.63;22.25;;;;;;;10.41;100.00;102435.44;5306683;28;20028;-81
2022/11/30 10:41:16;;;;;;;27.50;22.40;;;;;;;11.04;100.00;102432.97;5306605;28;20035;-81
2022/11/30 10:43:57;;;;;;;27.30;21.80;;;;;;;11.13;100.00;102424.31;5320185;28;20357;-81
2022/11/30 10:46:35;;;;;;;29.45;22.33;;;;;;;11.12;100.00;102426.16;5327502;28;20093;-81
2022/11/30 10:49:14;;;;;;;24.20;19.88;;;;;;;11.58;100.00;102423.84;5327597;28;20066;-81
2022/11/30 10:51:52;;;;;;;23.90;20.88;;;;;;;12.24;100.00;102427.06;5327550;28;20472;-81
2022/11/30 10:54:24;;;;;;;26.00;21.42;;;;;;;13.05;100.00;102420.00;5327495;28;20020;-81
2022/11/30 10:56:59;;;;;;;22.75;19.05;;;;;;;14.26;100.00;102421.91;5326647;28;20012;-80
2022/11/30 10:59:53;;;;;;;21.58;19.38;;;;;;;14.49;100.00;102419.97;5327861;28;20431;-80
2022/11/30 11:02:36;;;;;;;21.35;18.40;;;;;;;14.19;100.00;102424.25;5321731;28;20035;-80
2022/11/30 11:05:24;;;;;;;22.35;18.08;;;;;;;13.94;100.00;102404.84;5327165;28;20051;-80
2022/11/30 11:08:02;;;;;;;20.17;18.08;;;;;;;13.37;100.00;102412.09;5326815;27;20496;-80
2022/11/30 11:10:35;;;;;;;19.20;17.23;;;;;;;13.65;100.00;102417.09;5307700;28;20032;-80
2022/11/30 11:13:19;;;;;;;20.00;17.88;;;;;;;13.73;100.00;102411.97;5309039;28;20400;-80
2022/11/30 11:15:59;;;;;;;23.25;18.35;;;;;;;13.69;100.00;102410.50;5308816;28;20387;-80
2022/11/30 11:18:32;;;;;;;22.08;19.05;;;;;;;12.92;100.00;102397.81;5327277;28;20046;-80
2022/11/30 11:21:21;;;;;;;20.08;17.65;;;;;;;12.56;100.00;102395.19;5309293;28;20020;-80
2022/11/30 11:23:54;;;;;;;21.50;17.75;;;;;;;11.87;100.00;102403.03;5308203;28;20027;-80
2022/11/30 11:26:27;;;;;;;21.50;19.20;;;;;;;11.53;100.00;102411.69;5324244;27;20042;-80
2022/11/30 11:28:59;;;;;;;22.15;19.20;;;;;;;11.24;100.00;102399.56;5308328;28;20040;-80
2022/11/30 11:31:30;;;;;;;22.45;19.45;;;;;;;10.92;100.00;102386.63;5326956;28;20035;-80
2022/11/30 11:34:03;;;;;;;21.35;18.98;;;;;;;10.83;100.00;102397.94;5327356;28;20528;-81
2022/11/30 11:36:35;;;;;;;21.05;18.83;;;;;;;10.84;100.00;102402.34;5307987;28;20012;-80
2022/11/30 11:39:24;;;;;;;27.60;21.02;;;;;;;10.85;100.00;102412.91;5325693;28;20028;-80
2022/11/30 11:41:56;;;;;;;23.25;19.73;;;;;;;10.59;100.00;102407.53;5324939;28;20024;-80